sensor_id;sensor_type;location;lat;lon;timestamp;P1;durP1;ratioP1;P2;durP2;ratioP2
64197;SDS011;50512;53.666;9.700;2023-12-28T00:00:00;4.18;;;2.35;;
64197;SDS011;50512;53.666;9.700;2023-12-28T00:02:28;5.90;;;2.47;;
64197;SDS011;50512;53.666;9.700;2023-12-28T00:04:55;5.20;;;2.67;;
64197;SDS011;50512;53.666;9.700;2023-12-28T00:07:21;5.07;;;3.10;;
64197;SDS011;50512;53.666;9.700;2023-12-28T00:09:48;5.40;;;2.78;;
64197;SDS011;50512;53.666;9.700;2023-12-28T00:12:13;5.72;;;3.25;;
64197;SDS011;50512;53.666;9.700;2023-12-28T00:14:40;5.65;;;2.58;;
64197;SDS011;50512;53.666;9.700;2023-12-28T00:17:07;3.25;;;2.00;;
64197;SDS011;50512;53.666;9.700;2023-12-28T00:19:34;6.53;;;3.03;;
64197;SDS011;50512;53.666;9.700;2023-12-28T00:22:01;4.85;;;2.47;;
64197;SDS011;50512;53.666;9.700;2023-12-28T00:24:28;4.72;;;2.60;;
64197;SDS011;50512;53.666;9.700;2023-12-28T00:26:54;5.32;;;2.47;;
64197;SDS011;50512;53.666;9.700;2023-12-28T00:29:21;7.45;;;3.53;;
64197;SDS011;50512;53.666;9.700;2023-12-28T00:31:47;2.83;;;1.55;;
64197;SDS011;50512;53.666;9.700;2023-12-28T00:34:14;5.03;;;2.75;;
64197;SDS011;50512;53.666;9.700;2023-12-28T00:36:42;11.57;;;3.17;;
64197;SDS011;50512;53.666;9.700;2023-12-28T00:39:08;8.02;;;2.80;;
64197;SDS011;50512;53.666;9.700;2023-12-28T00:41:35;5.25;;;3.00;;
64197;SDS011;50512;53.666;9.700;2023-12-28T00:44:01;5.80;;;3.00;;
64197;SDS011;50512;53.666;9.700;2023-12-28T00:46:28;3.85;;;2.17;;
64197;SDS011;50512;53.666;9.700;2023-12-28T00:48:54;4.25;;;2.38;;
64197;SDS011;50512;53.666;9.700;2023-12-28T00:51:21;9.07;;;3.00;;
64197;SDS011;50512;53.666;9.700;2023-12-28T00:53:49;6.30;;;2.55;;
64197;SDS011;50512;53.666;9.700;2023-12-28T00:56:15;6.70;;;2.97;;
64197;SDS011;50512;53.666;9.700;2023-12-28T00:58:42;10.20;;;2.72;;
64197;SDS011;50512;53.666;9.700;2023-12-28T01:01:09;12.27;;;2.50;;
64197;SDS011;50512;53.666;9.700;2023-12-28T01:03:36;4.65;;;2.33;;
64197;SDS011;50512;53.666;9.700;2023-12-28T01:06:02;6.22;;;3.17;;
64197;SDS011;50512;53.666;9.700;2023-12-28T01:08:30;8.60;;;3.25;;
64197;SDS011;50512;53.666;9.700;2023-12-28T01:11:00;6.95;;;2.92;;
64197;SDS011;50512;53.666;9.700;2023-12-28T01:13:27;7.78;;;3.17;;
64197;SDS011;50512;53.666;9.700;2023-12-28T01:15:54;8.55;;;4.28;;
64197;SDS011;50512;53.666;9.700;2023-12-28T01:18:20;8.82;;;3.20;;
64197;SDS011;50512;53.666;9.700;2023-12-28T01:20:47;7.45;;;2.88;;
64197;SDS011;50512;53.666;9.700;2023-12-28T01:23:13;10.82;;;3.45;;
64197;SDS011;50512;53.666;9.700;2023-12-28T01:25:40;7.40;;;3.35;;
64197;SDS011;50512;53.666;9.700;2023-12-28T01:28:08;6.18;;;3.08;;
64197;SDS011;50512;53.666;9.700;2023-12-28T01:30:34;5.30;;;2.75;;
64197;SDS011;50512;53.666;9.700;2023-12-28T01:33:01;7.05;;;2.90;;
64197;SDS011;50512;53.666;9.700;2023-12-28T01:35:27;5.43;;;3.47;;
64197;SDS011;50512;53.666;9.700;2023-12-28T01:37:54;6.32;;;3.00;;
64197;SDS011;50512;53.666;9.700;2023-12-28T01:40:22;8.25;;;3.78;;
64197;SDS011;50512;53.666;9.700;2023-12-28T01:42:49;6.07;;;2.42;;
64197;SDS011;50512;53.666;9.700;2023-12-28T01:45:17;5.88;;;3.08;;
64197;SDS011;50512;53.666;9.700;2023-12-28T01:47:43;6.13;;;3.40;;
64197;SDS011;50512;53.666;9.700;2023-12-28T01:50:10;6.32;;;2.97;;
64197;SDS011;50512;53.666;9.700;2023-12-28T01:52:36;6.00;;;3.40;;
64197;SDS011;50512;53.666;9.700;2023-12-28T01:55:04;9.00;;;3.90;;
64197;SDS011;50512;53.666;9.700;2023-12-28T01:57:31;5.75;;;3.45;;
64197;SDS011;50512;53.666;9.700;2023-12-28T01:59:58;7.85;;;3.38;;
64197;SDS011;50512;53.666;9.700;2023-12-28T02:02:34;8.55;;;3.72;;
64197;SDS011;50512;53.666;9.700;2023-12-28T02:05:01;10.02;;;3.00;;
64197;SDS011;50512;53.666;9.700;2023-12-28T02:07:28;8.68;;;3.67;;
64197;SDS011;50512;53.666;9.700;2023-12-28T02:09:55;6.72;;;3.70;;
64197;SDS011;50512;53.666;9.700;2023-12-28T02:12:22;3.50;;;2.10;;
64197;SDS011;50512;53.666;9.700;2023-12-28T02:14:49;4.60;;;2.25;;
64197;SDS011;50512;53.666;9.700;2023-12-28T02:17:19;4.82;;;2.85;;
64197;SDS011;50512;53.666;9.700;2023-12-28T02:19:54;3.92;;;2.38;;
64197;SDS011;50512;53.666;9.700;2023-12-28T02:22:23;5.82;;;2.90;;
64197;SDS011;50512;53.666;9.700;2023-12-28T02:24:56;8.18;;;2.88;;
64197;SDS011;50512;53.666;9.700;2023-12-28T02:27:28;6.50;;;3.00;;
64197;SDS011;50512;53.666;9.700;2023-12-28T02:29:55;6.07;;;3.40;;
64197;SDS011;50512;53.666;9.700;2023-12-28T02:32:22;9.57;;;4.15;;
64197;SDS011;50512;53.666;9.700;2023-12-28T02:34:55;8.27;;;3.50;;
64197;SDS011;50512;53.666;9.700;2023-12-28T02:37:27;7.15;;;3.35;;
64197;SDS011;50512;53.666;9.700;2023-12-28T02:39:58;8.60;;;3.80;;
64197;SDS011;50512;53.666;9.700;2023-12-28T02:42:25;8.13;;;3.92;;
64197;SDS011;50512;53.666;9.700;2023-12-28T02:44:51;7.70;;;4.30;;
64197;SDS011;50512;53.666;9.700;2023-12-28T02:47:18;12.10;;;3.65;;
64197;SDS011;50512;53.666;9.700;2023-12-28T02:49:44;7.97;;;2.80;;
64197;SDS011;50512;53.666;9.700;2023-12-28T02:52:11;4.80;;;2.50;;
64197;SDS011;50512;53.666;9.700;2023-12-28T02:54:38;8.65;;;3.33;;
64197;SDS011;50512;53.666;9.700;2023-12-28T02:57:05;6.18;;;2.88;;
64197;SDS011;50512;53.666;9.700;2023-12-28T02:59:32;7.07;;;3.28;;
64197;SDS011;50512;53.666;9.700;2023-12-28T03:01:58;6.10;;;3.00;;
64197;SDS011;50512;53.666;9.700;2023-12-28T03:04:25;6.75;;;2.85;;
64197;SDS011;50512;53.666;9.700;2023-12-28T03:06:51;6.50;;;2.80;;
64197;SDS011;50512;53.666;9.700;2023-12-28T03:09:18;7.70;;;3.63;;
64197;SDS011;50512;53.666;9.700;2023-12-28T03:11:44;7.05;;;3.03;;
64197;SDS011;50512;53.666;9.700;2023-12-28T03:14:12;6.38;;;3.10;;
64197;SDS011;50512;53.666;9.700;2023-12-28T03:16:39;6.15;;;3.13;;
64197;SDS011;50512;53.666;9.700;2023-12-28T03:19:05;6.68;;;3.67;;
64197;SDS011;50512;53.666;9.700;2023-12-28T03:21:32;5.68;;;3.08;;
64197;SDS011;50512;53.666;9.700;2023-12-28T03:23:58;5.65;;;2.85;;
64197;SDS011;50512;53.666;9.700;2023-12-28T03:26:25;7.80;;;2.63;;
64197;SDS011;50512;53.666;9.700;2023-12-28T03:28:51;6.40;;;3.33;;
64197;SDS011;50512;53.666;9.700;2023-12-28T03:31:19;8.52;;;3.35;;
64197;SDS011;50512;53.666;9.700;2023-12-28T03:33:46;8.75;;;2.63;;
64197;SDS011;50512;53.666;9.700;2023-12-28T03:36:17;6.38;;;3.67;;
64197;SDS011;50512;53.666;9.700;2023-12-28T03:38:44;7.65;;;3.63;;
64197;SDS011;50512;53.666;9.700;2023-12-28T03:41:15;6.93;;;3.60;;
64197;SDS011;50512;53.666;9.700;2023-12-28T03:43:42;7.28;;;3.67;;
64197;SDS011;50512;53.666;9.700;2023-12-28T03:46:09;8.30;;;3.60;;
64197;SDS011;50512;53.666;9.700;2023-12-28T03:48:37;7.50;;;3.55;;
64197;SDS011;50512;53.666;9.700;2023-12-28T03:51:03;9.80;;;2.63;;
64197;SDS011;50512;53.666;9.700;2023-12-28T03:53:30;8.98;;;3.15;;
64197;SDS011;50512;53.666;9.700;2023-12-28T03:55:57;7.05;;;3.17;;
64197;SDS011;50512;53.666;9.700;2023-12-28T03:58:24;9.98;;;3.13;;
64197;SDS011;50512;53.666;9.700;2023-12-28T04:00:51;4.75;;;2.00;;
64197;SDS011;50512;53.666;9.700;2023-12-28T04:03:18;6.93;;;3.25;;
64197;SDS011;50512;53.666;9.700;2023-12-28T04:05:46;6.78;;;2.75;;
64197;SDS011;50512;53.666;9.700;2023-12-28T04:08:13;5.03;;;2.63;;
64197;SDS011;50512;53.666;9.700;2023-12-28T04:10:39;10.05;;;2.83;;
64197;SDS011;50512;53.666;9.700;2023-12-28T04:13:06;4.47;;;2.42;;
64197;SDS011;50512;53.666;9.700;2023-12-28T04:15:32;4.80;;;3.08;;
64197;SDS011;50512;53.666;9.700;2023-12-28T04:17:59;5.43;;;3.25;;
64197;SDS011;50512;53.666;9.700;2023-12-28T04:20:25;5.05;;;3.08;;
64197;SDS011;50512;53.666;9.700;2023-12-28T04:22:53;5.20;;;2.67;;
64197;SDS011;50512;53.666;9.700;2023-12-28T04:25:20;7.60;;;3.00;;
64197;SDS011;50512;53.666;9.700;2023-12-28T04:27:46;6.88;;;3.53;;
64197;SDS011;50512;53.666;9.700;2023-12-28T04:30:14;7.93;;;3.30;;
64197;SDS011;50512;53.666;9.700;2023-12-28T04:32:41;7.95;;;2.70;;
64197;SDS011;50512;53.666;9.700;2023-12-28T04:35:07;6.07;;;2.88;;
64197;SDS011;50512;53.666;9.700;2023-12-28T04:37:34;5.55;;;2.92;;
64197;SDS011;50512;53.666;9.700;2023-12-28T04:40:03;4.57;;;2.88;;
64197;SDS011;50512;53.666;9.700;2023-12-28T04:42:30;8.48;;;3.25;;
64197;SDS011;50512;53.666;9.700;2023-12-28T04:44:56;7.65;;;3.65;;
64197;SDS011;50512;53.666;9.700;2023-12-28T04:47:23;6.93;;;3.38;;
64197;SDS011;50512;53.666;9.700;2023-12-28T04:49:49;8.57;;;3.15;;
64197;SDS011;50512;53.666;9.700;2023-12-28T04:52:16;5.25;;;2.70;;
64197;SDS011;50512;53.666;9.700;2023-12-28T04:54:42;5.00;;;2.90;;
64197;SDS011;50512;53.666;9.700;2023-12-28T04:57:10;6.03;;;2.75;;
64197;SDS011;50512;53.666;9.700;2023-12-28T04:59:37;6.25;;;3.45;;
64197;SDS011;50512;53.666;9.700;2023-12-28T05:02:04;5.40;;;2.72;;
64197;SDS011;50512;53.666;9.700;2023-12-28T05:04:31;7.35;;;3.13;;
64197;SDS011;50512;53.666;9.700;2023-12-28T05:06:57;7.28;;;2.90;;
64197;SDS011;50512;53.666;9.700;2023-12-28T05:09:24;8.88;;;3.60;;
64197;SDS011;50512;53.666;9.700;2023-12-28T05:11:50;5.63;;;2.40;;
64197;SDS011;50512;53.666;9.700;2023-12-28T05:14:18;6.47;;;3.83;;
64197;SDS011;50512;53.666;9.700;2023-12-28T05:16:45;6.78;;;3.25;;
64197;SDS011;50512;53.666;9.700;2023-12-28T05:19:11;5.20;;;3.00;;
64197;SDS011;50512;53.666;9.700;2023-12-28T05:21:38;6.78;;;2.70;;
64197;SDS011;50512;53.666;9.700;2023-12-28T05:24:05;5.13;;;2.22;;
64197;SDS011;50512;53.666;9.700;2023-12-28T05:26:32;3.45;;;2.15;;
64197;SDS011;50512;53.666;9.700;2023-12-28T05:28:58;7.90;;;3.17;;
64197;SDS011;50512;53.666;9.700;2023-12-28T05:31:26;7.53;;;3.25;;
64197;SDS011;50512;53.666;9.700;2023-12-28T05:33:53;9.65;;;3.53;;
64197;SDS011;50512;53.666;9.700;2023-12-28T05:36:19;10.25;;;4.18;;
64197;SDS011;50512;53.666;9.700;2023-12-28T05:38:46;7.45;;;3.22;;
64197;SDS011;50512;53.666;9.700;2023-12-28T05:41:12;7.13;;;3.17;;
64197;SDS011;50512;53.666;9.700;2023-12-28T05:43:39;6.55;;;2.63;;
64197;SDS011;50512;53.666;9.700;2023-12-28T05:46:06;5.65;;;2.75;;
64197;SDS011;50512;53.666;9.700;2023-12-28T05:48:33;4.53;;;2.33;;
64197;SDS011;50512;53.666;9.700;2023-12-28T05:51:00;9.13;;;2.75;;
64197;SDS011;50512;53.666;9.700;2023-12-28T05:53:27;9.13;;;2.72;;
64197;SDS011;50512;53.666;9.700;2023-12-28T05:55:54;6.25;;;2.95;;
64197;SDS011;50512;53.666;9.700;2023-12-28T05:58:21;6.93;;;3.10;;
64197;SDS011;50512;53.666;9.700;2023-12-28T06:00:47;4.70;;;2.83;;
64197;SDS011;50512;53.666;9.700;2023-12-28T06:03:14;6.10;;;2.65;;
64197;SDS011;50512;53.666;9.700;2023-12-28T06:05:42;8.95;;;3.63;;
64197;SDS011;50512;53.666;9.700;2023-12-28T06:08:08;4.05;;;2.28;;
64197;SDS011;50512;53.666;9.700;2023-12-28T06:10:36;8.45;;;2.88;;
64197;SDS011;50512;53.666;9.700;2023-12-28T06:13:02;7.13;;;3.20;;
64197;SDS011;50512;53.666;9.700;2023-12-28T06:15:29;7.45;;;3.50;;
64197;SDS011;50512;53.666;9.700;2023-12-28T06:17:56;6.57;;;2.38;;
64197;SDS011;50512;53.666;9.700;2023-12-28T06:20:23;8.07;;;2.50;;
64197;SDS011;50512;53.666;9.700;2023-12-28T06:22:50;4.20;;;2.60;;
64197;SDS011;50512;53.666;9.700;2023-12-28T06:25:17;7.85;;;2.95;;
64197;SDS011;50512;53.666;9.700;2023-12-28T06:27:43;5.60;;;2.65;;
64197;SDS011;50512;53.666;9.700;2023-12-28T06:30:10;4.95;;;3.03;;
64197;SDS011;50512;53.666;9.700;2023-12-28T06:32:37;9.45;;;2.90;;
64197;SDS011;50512;53.666;9.700;2023-12-28T06:35:04;5.20;;;2.72;;
64197;SDS011;50512;53.666;9.700;2023-12-28T06:37:32;7.50;;;2.63;;
64197;SDS011;50512;53.666;9.700;2023-12-28T06:40:00;9.05;;;2.58;;
64197;SDS011;50512;53.666;9.700;2023-12-28T06:42:26;6.03;;;2.90;;
64197;SDS011;50512;53.666;9.700;2023-12-28T06:44:53;6.50;;;3.55;;
64197;SDS011;50512;53.666;9.700;2023-12-28T06:47:20;6.57;;;3.40;;
64197;SDS011;50512;53.666;9.700;2023-12-28T06:49:46;7.28;;;3.33;;
64197;SDS011;50512;53.666;9.700;2023-12-28T06:52:13;5.07;;;2.47;;
64197;SDS011;50512;53.666;9.700;2023-12-28T06:54:39;4.88;;;2.20;;
64197;SDS011;50512;53.666;9.700;2023-12-28T06:57:07;7.18;;;3.03;;
64197;SDS011;50512;53.666;9.700;2023-12-28T06:59:34;5.05;;;2.97;;
64197;SDS011;50512;53.666;9.700;2023-12-28T07:02:00;14.60;;;3.65;;
64197;SDS011;50512;53.666;9.700;2023-12-28T07:04:27;5.55;;;3.15;;
64197;SDS011;50512;53.666;9.700;2023-12-28T07:06:54;6.43;;;2.70;;
64197;SDS011;50512;53.666;9.700;2023-12-28T07:09:20;7.10;;;3.13;;
64197;SDS011;50512;53.666;9.700;2023-12-28T07:11:47;4.88;;;2.80;;
64197;SDS011;50512;53.666;9.700;2023-12-28T07:14:15;8.82;;;3.10;;
64197;SDS011;50512;53.666;9.700;2023-12-28T07:16:41;8.85;;;2.90;;
64197;SDS011;50512;53.666;9.700;2023-12-28T07:19:08;5.70;;;3.10;;
64197;SDS011;50512;53.666;9.700;2023-12-28T07:21:34;4.93;;;2.45;;
64197;SDS011;50512;53.666;9.700;2023-12-28T07:24:01;4.75;;;2.47;;
64197;SDS011;50512;53.666;9.700;2023-12-28T07:26:28;7.90;;;3.47;;
64197;SDS011;50512;53.666;9.700;2023-12-28T07:28:54;4.90;;;3.10;;
64197;SDS011;50512;53.666;9.700;2023-12-28T07:31:25;8.77;;;2.95;;
64197;SDS011;50512;53.666;9.700;2023-12-28T07:33:53;7.65;;;2.92;;
64197;SDS011;50512;53.666;9.700;2023-12-28T07:36:20;5.85;;;2.70;;
64197;SDS011;50512;53.666;9.700;2023-12-28T07:38:46;5.35;;;2.55;;
64197;SDS011;50512;53.666;9.700;2023-12-28T07:41:13;6.88;;;2.67;;
64197;SDS011;50512;53.666;9.700;2023-12-28T07:43:40;8.15;;;2.47;;
64197;SDS011;50512;53.666;9.700;2023-12-28T07:46:07;7.18;;;3.22;;
64197;SDS011;50512;53.666;9.700;2023-12-28T07:48:34;8.05;;;2.53;;
64197;SDS011;50512;53.666;9.700;2023-12-28T07:51:03;5.45;;;3.00;;
64197;SDS011;50512;53.666;9.700;2023-12-28T07:53:30;7.18;;;3.40;;
64197;SDS011;50512;53.666;9.700;2023-12-28T07:55:57;8.02;;;2.55;;
64197;SDS011;50512;53.666;9.700;2023-12-28T07:58:24;5.70;;;3.10;;
64197;SDS011;50512;53.666;9.700;2023-12-28T08:00:50;6.43;;;2.88;;
64197;SDS011;50512;53.666;9.700;2023-12-28T08:03:17;4.40;;;2.15;;
64197;SDS011;50512;53.666;9.700;2023-12-28T08:05:45;10.75;;;2.28;;
64197;SDS011;50512;53.666;9.700;2023-12-28T08:08:12;6.50;;;2.60;;
64197;SDS011;50512;53.666;9.700;2023-12-28T08:10:39;10.93;;;3.10;;
64197;SDS011;50512;53.666;9.700;2023-12-28T08:13:05;4.10;;;2.15;;
64197;SDS011;50512;53.666;9.700;2023-12-28T08:15:32;5.13;;;2.40;;
64197;SDS011;50512;53.666;9.700;2023-12-28T08:17:58;11.20;;;2.78;;
64197;SDS011;50512;53.666;9.700;2023-12-28T08:20:25;5.05;;;2.00;;
64197;SDS011;50512;53.666;9.700;2023-12-28T08:22:53;6.57;;;2.13;;
64197;SDS011;50512;53.666;9.700;2023-12-28T08:25:19;9.65;;;2.92;;
64197;SDS011;50512;53.666;9.700;2023-12-28T08:27:47;5.50;;;2.50;;
64197;SDS011;50512;53.666;9.700;2023-12-28T08:30:14;7.97;;;2.33;;
64197;SDS011;50512;53.666;9.700;2023-12-28T08:32:41;6.57;;;2.22;;
64197;SDS011;50512;53.666;9.700;2023-12-28T08:35:07;16.02;;;2.65;;
64197;SDS011;50512;53.666;9.700;2023-12-28T08:37:34;7.28;;;2.30;;
64197;SDS011;50512;53.666;9.700;2023-12-28T08:40:02;9.05;;;2.50;;
64197;SDS011;50512;53.666;9.700;2023-12-28T08:42:29;8.27;;;1.80;;
64197;SDS011;50512;53.666;9.700;2023-12-28T08:44:55;9.45;;;2.28;;
64197;SDS011;50512;53.666;9.700;2023-12-28T08:47:22;8.50;;;2.35;;
64197;SDS011;50512;53.666;9.700;2023-12-28T08:49:49;9.13;;;2.53;;
64197;SDS011;50512;53.666;9.700;2023-12-28T08:52:16;8.35;;;2.28;;
64197;SDS011;50512;53.666;9.700;2023-12-28T08:54:43;6.60;;;2.17;;
64197;SDS011;50512;53.666;9.700;2023-12-28T08:57:11;8.93;;;2.50;;
64197;SDS011;50512;53.666;9.700;2023-12-28T08:59:39;11.25;;;2.15;;
64197;SDS011;50512;53.666;9.700;2023-12-28T09:02:06;6.68;;;2.50;;
64197;SDS011;50512;53.666;9.700;2023-12-28T09:04:32;7.70;;;3.25;;
64197;SDS011;50512;53.666;9.700;2023-12-28T09:06:59;9.20;;;2.47;;
64197;SDS011;50512;53.666;9.700;2023-12-28T09:09:26;14.82;;;3.92;;
64197;SDS011;50512;53.666;9.700;2023-12-28T09:11:52;10.45;;;2.38;;
64197;SDS011;50512;53.666;9.700;2023-12-28T09:14:20;11.02;;;2.33;;
64197;SDS011;50512;53.666;9.700;2023-12-28T09:16:47;8.98;;;2.28;;
64197;SDS011;50512;53.666;9.700;2023-12-28T09:19:13;8.07;;;2.90;;
64197;SDS011;50512;53.666;9.700;2023-12-28T09:21:40;7.75;;;1.60;;
64197;SDS011;50512;53.666;9.700;2023-12-28T09:24:07;8.20;;;2.05;;
64197;SDS011;50512;53.666;9.700;2023-12-28T09:26:33;7.38;;;2.10;;
64197;SDS011;50512;53.666;9.700;2023-12-28T09:29:00;9.40;;;2.67;;
64197;SDS011;50512;53.666;9.700;2023-12-28T09:31:28;11.07;;;3.22;;
64197;SDS011;50512;53.666;9.700;2023-12-28T09:33:55;8.73;;;2.10;;
64197;SDS011;50512;53.666;9.700;2023-12-28T09:36:22;6.68;;;1.73;;
64197;SDS011;50512;53.666;9.700;2023-12-28T09:38:48;8.75;;;2.20;;
64197;SDS011;50512;53.666;9.700;2023-12-28T09:41:16;7.55;;;2.20;;
64197;SDS011;50512;53.666;9.700;2023-12-28T09:43:49;12.00;;;3.10;;
64197;SDS011;50512;53.666;9.700;2023-12-28T09:46:20;7.72;;;2.58;;
64197;SDS011;50512;53.666;9.700;2023-12-28T09:48:48;12.98;;;2.45;;
64197;SDS011;50512;53.666;9.700;2023-12-28T09:51:15;8.23;;;2.65;;
64197;SDS011;50512;53.666;9.700;2023-12-28T09:53:42;8.70;;;2.08;;
64197;SDS011;50512;53.666;9.700;2023-12-28T09:56:09;12.73;;;2.78;;
64197;SDS011;50512;53.666;9.700;2023-12-28T09:58:35;9.95;;;3.08;;
64197;SDS011;50512;53.666;9.700;2023-12-28T10:01:03;7.13;;;2.05;;
64197;SDS011;50512;53.666;9.700;2023-12-28T10:03:31;8.25;;;2.30;;
64197;SDS011;50512;53.666;9.700;2023-12-28T10:05:59;3.85;;;1.55;;
64197;SDS011;50512;53.666;9.700;2023-12-28T10:08:25;9.40;;;1.88;;
64197;SDS011;50512;53.666;9.700;2023-12-28T10:10:52;10.65;;;1.98;;
64197;SDS011;50512;53.666;9.700;2023-12-28T10:13:19;8.73;;;2.15;;
64197;SDS011;50512;53.666;9.700;2023-12-28T10:15:46;11.38;;;2.75;;
64197;SDS011;50512;53.666;9.700;2023-12-28T10:18:12;6.82;;;2.10;;
64197;SDS011;50512;53.666;9.700;2023-12-28T10:20:39;10.65;;;3.05;;
64197;SDS011;50512;53.666;9.700;2023-12-28T10:23:07;8.90;;;1.88;;
64197;SDS011;50512;53.666;9.700;2023-12-28T10:25:35;10.07;;;2.72;;
64197;SDS011;50512;53.666;9.700;2023-12-28T10:28:03;11.00;;;1.92;;
64197;SDS011;50512;53.666;9.700;2023-12-28T10:30:31;5.90;;;2.40;;
64197;SDS011;50512;53.666;9.700;2023-12-28T10:32:58;7.97;;;2.05;;
64197;SDS011;50512;53.666;9.700;2023-12-28T10:35:24;8.82;;;2.03;;
64197;SDS011;50512;53.666;9.700;2023-12-28T10:37:51;8.50;;;2.22;;
64197;SDS011;50512;53.666;9.700;2023-12-28T10:40:20;15.25;;;2.80;;
64197;SDS011;50512;53.666;9.700;2023-12-28T10:42:49;10.77;;;2.03;;
64197;SDS011;50512;53.666;9.700;2023-12-28T10:45:17;8.85;;;2.63;;
64197;SDS011;50512;53.666;9.700;2023-12-28T10:47:47;10.32;;;2.25;;
64197;SDS011;50512;53.666;9.700;2023-12-28T10:50:20;9.77;;;2.00;;
64197;SDS011;50512;53.666;9.700;2023-12-28T10:52:49;11.73;;;1.90;;
64197;SDS011;50512;53.666;9.700;2023-12-28T10:55:25;11.27;;;2.00;;
64197;SDS011;50512;53.666;9.700;2023-12-28T10:58:09;10.45;;;3.22;;
64197;SDS011;50512;53.666;9.700;2023-12-28T11:00:40;6.20;;;1.98;;
64197;SDS011;50512;53.666;9.700;2023-12-28T11:03:11;8.05;;;2.00;;
64197;SDS011;50512;53.666;9.700;2023-12-28T11:05:40;17.17;;;3.63;;
64197;SDS011;50512;53.666;9.700;2023-12-28T11:08:11;9.52;;;3.00;;
64197;SDS011;50512;53.666;9.700;2023-12-28T11:10:42;19.48;;;4.95;;
64197;SDS011;50512;53.666;9.700;2023-12-28T11:13:09;27.83;;;6.72;;
64197;SDS011;50512;53.666;9.700;2023-12-28T11:15:36;30.42;;;9.90;;
64197;SDS011;50512;53.666;9.700;2023-12-28T11:18:04;28.63;;;8.55;;
64197;SDS011;50512;53.666;9.700;2023-12-28T11:20:31;19.27;;;5.35;;
64197;SDS011;50512;53.666;9.700;2023-12-28T11:22:58;13.70;;;2.83;;
64197;SDS011;50512;53.666;9.700;2023-12-28T11:25:30;16.27;;;2.85;;
64197;SDS011;50512;53.666;9.700;2023-12-28T11:27:58;5.43;;;2.40;;
64197;SDS011;50512;53.666;9.700;2023-12-28T11:30:25;12.80;;;3.53;;
64197;SDS011;50512;53.666;9.700;2023-12-28T11:32:55;16.52;;;3.13;;
64197;SDS011;50512;53.666;9.700;2023-12-28T11:35:23;14.43;;;3.45;;
64197;SDS011;50512;53.666;9.700;2023-12-28T11:37:51;10.18;;;2.47;;
64197;SDS011;50512;53.666;9.700;2023-12-28T11:40:19;12.73;;;2.50;;
64197;SDS011;50512;53.666;9.700;2023-12-28T11:42:50;8.95;;;1.88;;
64197;SDS011;50512;53.666;9.700;2023-12-28T11:45:18;9.95;;;2.45;;
64197;SDS011;50512;53.666;9.700;2023-12-28T11:47:45;13.30;;;2.80;;
64197;SDS011;50512;53.666;9.700;2023-12-28T11:50:12;30.23;;;9.55;;
64197;SDS011;50512;53.666;9.700;2023-12-28T11:52:39;22.13;;;5.32;;
64197;SDS011;50512;53.666;9.700;2023-12-28T11:55:06;36.05;;;10.98;;
64197;SDS011;50512;53.666;9.700;2023-12-28T11:57:33;17.08;;;4.43;;
64197;SDS011;50512;53.666;9.700;2023-12-28T12:00:00;11.13;;;2.75;;
64197;SDS011;50512;53.666;9.700;2023-12-28T12:02:28;13.30;;;1.85;;
64197;SDS011;50512;53.666;9.700;2023-12-28T12:04:55;6.55;;;1.63;;
64197;SDS011;50512;53.666;9.700;2023-12-28T12:07:23;15.98;;;2.53;;
64197;SDS011;50512;53.666;9.700;2023-12-28T12:09:54;17.55;;;3.30;;
64197;SDS011;50512;53.666;9.700;2023-12-28T12:12:21;15.23;;;2.75;;
64197;SDS011;50512;53.666;9.700;2023-12-28T12:14:48;14.18;;;2.72;;
64197;SDS011;50512;53.666;9.700;2023-12-28T12:17:14;11.13;;;3.13;;
64197;SDS011;50512;53.666;9.700;2023-12-28T12:19:42;15.05;;;3.47;;
64197;SDS011;50512;53.666;9.700;2023-12-28T12:22:10;15.70;;;3.13;;
64197;SDS011;50512;53.666;9.700;2023-12-28T12:24:37;13.52;;;3.28;;
64197;SDS011;50512;53.666;9.700;2023-12-28T12:27:06;17.60;;;3.15;;
64197;SDS011;50512;53.666;9.700;2023-12-28T12:29:32;10.63;;;2.10;;
64197;SDS011;50512;53.666;9.700;2023-12-28T12:31:59;17.77;;;3.83;;
64197;SDS011;50512;53.666;9.700;2023-12-28T12:34:28;13.40;;;3.00;;
64197;SDS011;50512;53.666;9.700;2023-12-28T12:36:56;10.27;;;2.45;;
64197;SDS011;50512;53.666;9.700;2023-12-28T12:39:23;14.27;;;2.90;;
64197;SDS011;50512;53.666;9.700;2023-12-28T12:41:50;13.52;;;2.80;;
64197;SDS011;50512;53.666;9.700;2023-12-28T12:44:25;10.73;;;2.47;;
64197;SDS011;50512;53.666;9.700;2023-12-28T12:46:58;8.70;;;2.92;;
64197;SDS011;50512;53.666;9.700;2023-12-28T12:49:25;8.02;;;2.25;;
64197;SDS011;50512;53.666;9.700;2023-12-28T12:51:52;14.15;;;3.17;;
64197;SDS011;50512;53.666;9.700;2023-12-28T12:54:18;12.38;;;3.45;;
64197;SDS011;50512;53.666;9.700;2023-12-28T12:56:45;11.57;;;2.28;;
64197;SDS011;50512;53.666;9.700;2023-12-28T12:59:12;6.72;;;2.53;;
64197;SDS011;50512;53.666;9.700;2023-12-28T13:01:42;17.75;;;3.55;;
64197;SDS011;50512;53.666;9.700;2023-12-28T13:04:09;12.00;;;3.17;;
64197;SDS011;50512;53.666;9.700;2023-12-28T13:06:36;15.05;;;2.58;;
64197;SDS011;50512;53.666;9.700;2023-12-28T13:09:03;10.30;;;2.53;;
64197;SDS011;50512;53.666;9.700;2023-12-28T13:11:31;13.85;;;3.10;;
64197;SDS011;50512;53.666;9.700;2023-12-28T13:13:58;10.60;;;2.55;;
64197;SDS011;50512;53.666;9.700;2023-12-28T13:16:25;8.77;;;2.22;;
64197;SDS011;50512;53.666;9.700;2023-12-28T13:18:53;13.40;;;3.20;;
64197;SDS011;50512;53.666;9.700;2023-12-28T13:21:19;7.63;;;2.35;;
64197;SDS011;50512;53.666;9.700;2023-12-28T13:23:46;12.15;;;3.10;;
64197;SDS011;50512;53.666;9.700;2023-12-28T13:26:12;14.80;;;2.40;;
64197;SDS011;50512;53.666;9.700;2023-12-28T13:28:40;11.48;;;2.45;;
64197;SDS011;50512;53.666;9.700;2023-12-28T13:31:07;18.00;;;3.88;;
64197;SDS011;50512;53.666;9.700;2023-12-28T13:33:34;8.77;;;2.65;;
64197;SDS011;50512;53.666;9.700;2023-12-28T13:36:02;16.65;;;3.15;;
64197;SDS011;50512;53.666;9.700;2023-12-28T13:38:29;7.25;;;2.35;;
64197;SDS011;50512;53.666;9.700;2023-12-28T13:40:56;8.75;;;2.15;;
64197;SDS011;50512;53.666;9.700;2023-12-28T13:43:22;14.40;;;2.83;;
64197;SDS011;50512;53.666;9.700;2023-12-28T13:45:49;13.68;;;3.00;;
64197;SDS011;50512;53.666;9.700;2023-12-28T13:48:15;11.85;;;2.55;;
64197;SDS011;50512;53.666;9.700;2023-12-28T13:50:42;6.95;;;2.08;;
64197;SDS011;50512;53.666;9.700;2023-12-28T13:53:10;7.43;;;1.98;;
64197;SDS011;50512;53.666;9.700;2023-12-28T13:55:36;10.80;;;2.30;;
64197;SDS011;50512;53.666;9.700;2023-12-28T13:58:03;19.52;;;3.45;;
64197;SDS011;50512;53.666;9.700;2023-12-28T14:00:30;6.32;;;1.80;;
64197;SDS011;50512;53.666;9.700;2023-12-28T14:02:57;12.38;;;2.65;;
64197;SDS011;50512;53.666;9.700;2023-12-28T14:05:24;16.17;;;3.05;;
64197;SDS011;50512;53.666;9.700;2023-12-28T14:07:50;10.13;;;2.42;;
64197;SDS011;50512;53.666;9.700;2023-12-28T14:10:18;24.40;;;2.53;;
64197;SDS011;50512;53.666;9.700;2023-12-28T14:12:45;21.33;;;3.78;;
64197;SDS011;50512;53.666;9.700;2023-12-28T14:15:11;15.68;;;3.33;;
64197;SDS011;50512;53.666;9.700;2023-12-28T14:17:40;14.88;;;2.97;;
64197;SDS011;50512;53.666;9.700;2023-12-28T14:20:07;12.70;;;3.00;;
64197;SDS011;50512;53.666;9.700;2023-12-28T14:22:36;15.13;;;2.70;;
64197;SDS011;50512;53.666;9.700;2023-12-28T14:25:04;8.52;;;2.45;;
64197;SDS011;50512;53.666;9.700;2023-12-28T14:27:32;18.58;;;3.65;;
64197;SDS011;50512;53.666;9.700;2023-12-28T14:29:59;10.48;;;2.53;;
64197;SDS011;50512;53.666;9.700;2023-12-28T14:32:28;14.75;;;3.22;;
64197;SDS011;50512;53.666;9.700;2023-12-28T14:34:55;12.82;;;2.65;;
64197;SDS011;50512;53.666;9.700;2023-12-28T14:37:22;22.08;;;4.03;;
64197;SDS011;50512;53.666;9.700;2023-12-28T14:39:49;12.73;;;3.03;;
64197;SDS011;50512;53.666;9.700;2023-12-28T14:42:16;12.15;;;3.10;;